sensor_id;sensor_type;location;lat;lon;timestamp;P1;durP1;ratioP1;P2;durP2;ratioP2
2201;SDS011;1107;48.654;9.250;2023-01-01T00:00:13;66.00;;;31.57;;
2201;SDS011;1107;48.654;9.250;2023-01-01T00:02:40;56.13;;;30.90;;
2201;SDS011;1107;48.654;9.250;2023-01-01T00:05:07;60.77;;;28.63;;
2201;SDS011;1107;48.654;9.250;2023-01-01T00:07:36;58.90;;;30.57;;
2201;SDS011;1107;48.654;9.250;2023-01-01T00:10:03;77.77;;;35.50;;
2201;SDS011;1107;48.654;9.250;2023-01-01T00:12:48;87.77;;;41.27;;
2201;SDS011;1107;48.654;9.250;2023-01-01T00:15:15;92.53;;;45.27;;
2201;SDS011;1107;48.654;9.250;2023-01-01T00:17:42;100.37;;;41.93;;
2201;SDS011;1107;48.654;9.250;2023-01-01T00:20:09;106.47;;;43.40;;
2201;SDS011;1107;48.654;9.250;2023-01-01T00:22:38;97.13;;;42.90;;
2201;SDS011;1107;48.654;9.250;2023-01-01T00:25:05;108.70;;;45.53;;
2201;SDS011;1107;48.654;9.250;2023-01-01T00:27:32;80.07;;;35.27;;
2201;SDS011;1107;48.654;9.250;2023-01-01T00:29:59;60.97;;;33.13;;
2201;SDS011;1107;48.654;9.250;2023-01-01T00:32:26;52.17;;;30.17;;
2201;SDS011;1107;48.654;9.250;2023-01-01T00:34:53;59.60;;;25.50;;
2201;SDS011;1107;48.654;9.250;2023-01-01T00:37:20;38.47;;;22.20;;
2201;SDS011;1107;48.654;9.250;2023-01-01T00:39:48;27.90;;;16.27;;
2201;SDS011;1107;48.654;9.250;2023-01-01T00:42:15;25.73;;;17.53;;
2201;SDS011;1107;48.654;9.250;2023-01-01T00:44:42;25.10;;;16.27;;
2201;SDS011;1107;48.654;9.250;2023-01-01T00:47:09;24.50;;;16.13;;
2201;SDS011;1107;48.654;9.250;2023-01-01T00:49:36;25.07;;;16.07;;
2201;SDS011;1107;48.654;9.250;2023-01-01T00:52:03;24.97;;;17.30;;
2201;SDS011;1107;48.654;9.250;2023-01-01T00:54:30;32.53;;;18.07;;
2201;SDS011;1107;48.654;9.250;2023-01-01T00:56:58;39.17;;;17.10;;
2201;SDS011;1107;48.654;9.250;2023-01-01T00:59:25;26.13;;;17.03;;
2201;SDS011;1107;48.654;9.250;2023-01-01T01:01:52;26.70;;;17.20;;
2201;SDS011;1107;48.654;9.250;2023-01-01T01:04:19;24.00;;;18.40;;
2201;SDS011;1107;48.654;9.250;2023-01-01T01:06:46;30.03;;;16.97;;
2201;SDS011;1107;48.654;9.250;2023-01-01T01:09:13;19.37;;;15.20;;
2201;SDS011;1107;48.654;9.250;2023-01-01T01:11:40;20.90;;;14.93;;
2201;SDS011;1107;48.654;9.250;2023-01-01T01:14:08;22.37;;;15.33;;
2201;SDS011;1107;48.654;9.250;2023-01-01T01:16:35;19.83;;;14.87;;
2201;SDS011;1107;48.654;9.250;2023-01-01T01:19:03;18.43;;;14.57;;
2201;SDS011;1107;48.654;9.250;2023-01-01T01:21:32;21.27;;;14.87;;
2201;SDS011;1107;48.654;9.250;2023-01-01T01:24:00;27.63;;;14.03;;
2201;SDS011;1107;48.654;9.250;2023-01-01T01:26:29;13.20;;;11.63;;
2201;SDS011;1107;48.654;9.250;2023-01-01T01:28:57;17.17;;;14.43;;
2201;SDS011;1107;48.654;9.250;2023-01-01T01:31:27;19.83;;;12.83;;
2201;SDS011;1107;48.654;9.250;2023-01-01T01:33:55;19.33;;;12.40;;
2201;SDS011;1107;48.654;9.250;2023-01-01T01:36:22;19.00;;;13.50;;
2201;SDS011;1107;48.654;9.250;2023-01-01T01:38:50;13.33;;;11.87;;
2201;SDS011;1107;48.654;9.250;2023-01-01T01:41:18;14.67;;;12.40;;
2201;SDS011;1107;48.654;9.250;2023-01-01T01:43:51;14.70;;;11.03;;
2201;SDS011;1107;48.654;9.250;2023-01-01T01:46:20;13.83;;;11.90;;
2201;SDS011;1107;48.654;9.250;2023-01-01T01:48:52;10.60;;;9.60;;
2201;SDS011;1107;48.654;9.250;2023-01-01T01:51:22;12.67;;;11.30;;
2201;SDS011;1107;48.654;9.250;2023-01-01T01:53:55;12.53;;;11.23;;
2201;SDS011;1107;48.654;9.250;2023-01-01T01:56:27;15.20;;;11.37;;
2201;SDS011;1107;48.654;9.250;2023-01-01T01:58:57;12.90;;;10.50;;
2201;SDS011;1107;48.654;9.250;2023-01-01T02:01:24;20.10;;;11.37;;
2201;SDS011;1107;48.654;9.250;2023-01-01T02:03:54;12.87;;;10.40;;
2201;SDS011;1107;48.654;9.250;2023-01-01T02:06:23;12.90;;;11.33;;
2201;SDS011;1107;48.654;9.250;2023-01-01T02:08:51;13.03;;;11.43;;
2201;SDS011;1107;48.654;9.250;2023-01-01T02:11:19;12.53;;;10.30;;
2201;SDS011;1107;48.654;9.250;2023-01-01T02:13:46;13.27;;;11.13;;
2201;SDS011;1107;48.654;9.250;2023-01-01T02:16:15;16.97;;;12.30;;
2201;SDS011;1107;48.654;9.250;2023-01-01T02:18:48;17.07;;;11.97;;
2201;SDS011;1107;48.654;9.250;2023-01-01T02:21:22;13.60;;;10.50;;
2201;SDS011;1107;48.654;9.250;2023-01-01T02:26:47;12.97;;;10.87;;
2201;SDS011;1107;48.654;9.250;2023-01-01T02:29:21;11.20;;;10.10;;
2201;SDS011;1107;48.654;9.250;2023-01-01T02:31:57;13.70;;;10.40;;
2201;SDS011;1107;48.654;9.250;2023-01-01T02:34:28;12.70;;;10.80;;
2201;SDS011;1107;48.654;9.250;2023-01-01T02:36:58;15.40;;;9.87;;
2201;SDS011;1107;48.654;9.250;2023-01-01T02:39:28;15.97;;;10.17;;
2201;SDS011;1107;48.654;9.250;2023-01-01T02:41:59;12.97;;;9.83;;
2201;SDS011;1107;48.654;9.250;2023-01-01T02:44:33;17.53;;;8.67;;
2201;SDS011;1107;48.654;9.250;2023-01-01T02:47:05;8.67;;;7.93;;
2201;SDS011;1107;48.654;9.250;2023-01-01T02:49:35;9.47;;;8.63;;
2201;SDS011;1107;48.654;9.250;2023-01-01T02:52:06;8.47;;;7.57;;
2201;SDS011;1107;48.654;9.250;2023-01-01T02:54:40;8.57;;;7.77;;
2201;SDS011;1107;48.654;9.250;2023-01-01T02:57:15;8.17;;;7.40;;
2201;SDS011;1107;48.654;9.250;2023-01-01T02:59:56;7.53;;;6.83;;
2201;SDS011;1107;48.654;9.250;2023-01-01T03:02:53;7.37;;;6.87;;
2201;SDS011;1107;48.654;9.250;2023-01-01T03:05:32;7.67;;;7.07;;
2201;SDS011;1107;48.654;9.250;2023-01-01T03:08:27;12.77;;;6.50;;
2201;SDS011;1107;48.654;9.250;2023-01-01T03:11:00;8.40;;;6.40;;
2201;SDS011;1107;48.654;9.250;2023-01-01T03:13:32;7.13;;;6.53;;
2201;SDS011;1107;48.654;9.250;2023-01-01T03:16:07;8.47;;;7.77;;
2201;SDS011;1107;48.654;9.250;2023-01-01T03:18:41;7.00;;;6.60;;
2201;SDS011;1107;48.654;9.250;2023-01-01T03:21:13;7.00;;;6.30;;
2201;SDS011;1107;48.654;9.250;2023-01-01T03:23:47;7.20;;;6.23;;
2201;SDS011;1107;48.654;9.250;2023-01-01T03:26:18;6.87;;;6.47;;
2201;SDS011;1107;48.654;9.250;2023-01-01T03:28:53;6.63;;;6.03;;
2201;SDS011;1107;48.654;9.250;2023-01-01T03:31:25;6.80;;;6.10;;
2201;SDS011;1107;48.654;9.250;2023-01-01T03:33:52;7.63;;;7.00;;
2201;SDS011;1107;48.654;9.250;2023-01-01T03:36:26;8.23;;;6.40;;
2201;SDS011;1107;48.654;9.250;2023-01-01T03:38:56;8.80;;;7.93;;
2201;SDS011;1107;48.654;9.250;2023-01-01T03:41:27;10.17;;;7.43;;
2201;SDS011;1107;48.654;9.250;2023-01-01T03:44:02;8.60;;;7.90;;
2201;SDS011;1107;48.654;9.250;2023-01-01T03:46:34;8.00;;;7.30;;
2201;SDS011;1107;48.654;9.250;2023-01-01T03:49:02;8.57;;;7.70;;
2201;SDS011;1107;48.654;9.250;2023-01-01T03:51:36;6.70;;;6.10;;
2201;SDS011;1107;48.654;9.250;2023-01-01T03:54:24;8.10;;;7.30;;
2201;SDS011;1107;48.654;9.250;2023-01-01T03:57:03;7.83;;;7.03;;
2201;SDS011;1107;48.654;9.250;2023-01-01T03:59:37;6.30;;;5.90;;
2201;SDS011;1107;48.654;9.250;2023-01-01T04:02:10;6.43;;;5.93;;
2201;SDS011;1107;48.654;9.250;2023-01-01T04:04:41;7.23;;;5.93;;
2201;SDS011;1107;48.654;9.250;2023-01-01T04:07:08;5.40;;;5.00;;
2201;SDS011;1107;48.654;9.250;2023-01-01T04:09:35;5.73;;;5.40;;
2201;SDS011;1107;48.654;9.250;2023-01-01T04:12:05;10.10;;;6.23;;
2201;SDS011;1107;48.654;9.250;2023-01-01T04:14:33;6.30;;;5.90;;
2201;SDS011;1107;48.654;9.250;2023-01-01T04:17:02;6.60;;;6.10;;
2201;SDS011;1107;48.654;9.250;2023-01-01T04:19:31;8.40;;;6.77;;
2201;SDS011;1107;48.654;9.250;2023-01-01T04:21:59;6.83;;;5.83;;
2201;SDS011;1107;48.654;9.250;2023-01-01T04:24:26;7.90;;;5.90;;
2201;SDS011;1107;48.654;9.250;2023-01-01T04:26:53;6.83;;;6.33;;
2201;SDS011;1107;48.654;9.250;2023-01-01T04:29:20;6.20;;;5.80;;
2201;SDS011;1107;48.654;9.250;2023-01-01T04:31:48;6.80;;;5.30;;
2201;SDS011;1107;48.654;9.250;2023-01-01T04:34:15;5.73;;;5.30;;
2201;SDS011;1107;48.654;9.250;2023-01-01T04:36:44;5.83;;;5.33;;
2201;SDS011;1107;48.654;9.250;2023-01-01T04:39:11;9.33;;;5.23;;
2201;SDS011;1107;48.654;9.250;2023-01-01T04:41:38;7.97;;;5.00;;
2201;SDS011;1107;48.654;9.250;2023-01-01T04:44:04;4.97;;;4.60;;
2201;SDS011;1107;48.654;9.250;2023-01-01T04:46:32;5.87;;;5.37;;
2201;SDS011;1107;48.654;9.250;2023-01-01T04:48:59;7.33;;;5.63;;
2201;SDS011;1107;48.654;9.250;2023-01-01T04:51:25;6.13;;;5.60;;
2201;SDS011;1107;48.654;9.250;2023-01-01T04:53:54;5.53;;;5.07;;
2201;SDS011;1107;48.654;9.250;2023-01-01T04:56:21;5.40;;;5.10;;
2201;SDS011;1107;48.654;9.250;2023-01-01T04:58:48;5.60;;;5.20;;
2201;SDS011;1107;48.654;9.250;2023-01-01T05:01:16;5.07;;;4.67;;
2201;SDS011;1107;48.654;9.250;2023-01-01T05:03:45;6.00;;;5.43;;
2201;SDS011;1107;48.654;9.250;2023-01-01T05:06:12;7.13;;;5.10;;
2201;SDS011;1107;48.654;9.250;2023-01-01T05:08:41;5.57;;;5.07;;
2201;SDS011;1107;48.654;9.250;2023-01-01T05:11:11;6.07;;;5.53;;
2201;SDS011;1107;48.654;9.250;2023-01-01T05:13:40;5.20;;;4.90;;
2201;SDS011;1107;48.654;9.250;2023-01-01T05:16:09;5.40;;;5.00;;
2201;SDS011;1107;48.654;9.250;2023-01-01T05:18:37;5.30;;;4.90;;
2201;SDS011;1107;48.654;9.250;2023-01-01T05:21:05;8.87;;;5.30;;
2201;SDS011;1107;48.654;9.250;2023-01-01T05:23:33;6.15;;;5.30;;
2201;SDS011;1107;48.654;9.250;2023-01-01T05:26:06;6.13;;;5.60;;
2201;SDS011;1107;48.654;9.250;2023-01-01T05:28:36;7.20;;;5.33;;
2201;SDS011;1107;48.654;9.250;2023-01-01T05:31:04;5.20;;;4.80;;
2201;SDS011;1107;48.654;9.250;2023-01-01T05:33:32;5.70;;;5.20;;
2201;SDS011;1107;48.654;9.250;2023-01-01T05:35:59;6.23;;;5.80;;
2201;SDS011;1107;48.654;9.250;2023-01-01T05:38:26;5.20;;;4.80;;
2201;SDS011;1107;48.654;9.250;2023-01-01T05:40:53;5.90;;;5.30;;
2201;SDS011;1107;48.654;9.250;2023-01-01T05:43:20;4.43;;;4.03;;
2201;SDS011;1107;48.654;9.250;2023-01-01T05:45:49;5.43;;;4.93;;
2201;SDS011;1107;48.654;9.250;2023-01-01T05:48:25;6.35;;;5.45;;
2201;SDS011;1107;48.654;9.250;2023-01-01T05:50:52;5.10;;;4.65;;
2201;SDS011;1107;48.654;9.250;2023-01-01T05:53:19;10.57;;;4.80;;
2201;SDS011;1107;48.654;9.250;2023-01-01T05:55:50;5.87;;;5.37;;
2201;SDS011;1107;48.654;9.250;2023-01-01T05:58:18;5.70;;;5.20;;
2201;SDS011;1107;48.654;9.250;2023-01-01T06:03:13;6.03;;;5.13;;
2201;SDS011;1107;48.654;9.250;2023-01-01T06:05:40;6.03;;;5.43;;
2201;SDS011;1107;48.654;9.250;2023-01-01T06:08:07;5.70;;;4.80;;
2201;SDS011;1107;48.654;9.250;2023-01-01T06:10:34;5.43;;;4.50;;
2201;SDS011;1107;48.654;9.250;2023-01-01T06:13:01;5.57;;;5.07;;
2201;SDS011;1107;48.654;9.250;2023-01-01T06:15:28;7.30;;;4.87;;
2201;SDS011;1107;48.654;9.250;2023-01-01T06:17:56;5.70;;;4.80;;
2201;SDS011;1107;48.654;9.250;2023-01-01T06:20:24;5.37;;;5.07;;
2201;SDS011;1107;48.654;9.250;2023-01-01T06:22:51;5.30;;;4.90;;
2201;SDS011;1107;48.654;9.250;2023-01-01T06:25:18;5.30;;;4.73;;
2201;SDS011;1107;48.654;9.250;2023-01-01T06:27:45;6.60;;;5.03;;
2201;SDS011;1107;48.654;9.250;2023-01-01T06:30:12;4.63;;;4.33;;
2201;SDS011;1107;48.654;9.250;2023-01-01T06:32:39;4.50;;;4.20;;
2201;SDS011;1107;48.654;9.250;2023-01-01T06:35:06;5.73;;;4.37;;
2201;SDS011;1107;48.654;9.250;2023-01-01T06:37:35;4.47;;;4.07;;
2201;SDS011;1107;48.654;9.250;2023-01-01T06:40:02;6.30;;;4.90;;
2201;SDS011;1107;48.654;9.250;2023-01-01T06:42:30;4.53;;;4.17;;
2201;SDS011;1107;48.654;9.250;2023-01-01T06:44:57;4.67;;;4.37;;
2201;SDS011;1107;48.654;9.250;2023-01-01T06:47:24;5.00;;;3.90;;
2201;SDS011;1107;48.654;9.250;2023-01-01T06:49:50;4.63;;;4.07;;
2201;SDS011;1107;48.654;9.250;2023-01-01T06:52:17;5.00;;;4.60;;
2201;SDS011;1107;48.654;9.250;2023-01-01T06:54:46;6.10;;;3.90;;
2201;SDS011;1107;48.654;9.250;2023-01-01T06:57:13;6.63;;;3.80;;
2201;SDS011;1107;48.654;9.250;2023-01-01T06:59:40;3.97;;;3.77;;
2201;SDS011;1107;48.654;9.250;2023-01-01T07:02:07;3.53;;;3.33;;
2201;SDS011;1107;48.654;9.250;2023-01-01T07:04:35;3.40;;;3.10;;
2201;SDS011;1107;48.654;9.250;2023-01-01T07:07:02;3.90;;;3.60;;
2201;SDS011;1107;48.654;9.250;2023-01-01T07:09:29;4.30;;;3.90;;
2201;SDS011;1107;48.654;9.250;2023-01-01T07:11:57;3.87;;;3.57;;
2201;SDS011;1107;48.654;9.250;2023-01-01T07:14:24;4.03;;;3.63;;
2201;SDS011;1107;48.654;9.250;2023-01-01T07:16:51;5.50;;;4.47;;
2201;SDS011;1107;48.654;9.250;2023-01-01T07:19:18;4.73;;;4.33;;
2201;SDS011;1107;48.654;9.250;2023-01-01T07:21:48;4.60;;;4.30;;
2201;SDS011;1107;48.654;9.250;2023-01-01T07:24:18;4.93;;;4.60;;
2201;SDS011;1107;48.654;9.250;2023-01-01T07:26:45;4.60;;;4.20;;
2201;SDS011;1107;48.654;9.250;2023-01-01T07:29:14;4.53;;;4.13;;
2201;SDS011;1107;48.654;9.250;2023-01-01T07:31:41;5.50;;;5.10;;
2201;SDS011;1107;48.654;9.250;2023-01-01T07:34:11;4.53;;;4.23;;
2201;SDS011;1107;48.654;9.250;2023-01-01T07:36:40;3.93;;;3.63;;
2201;SDS011;1107;48.654;9.250;2023-01-01T07:39:07;4.93;;;4.53;;
2201;SDS011;1107;48.654;9.250;2023-01-01T07:41:35;4.50;;;4.20;;
2201;SDS011;1107;48.654;9.250;2023-01-01T07:44:02;4.70;;;4.30;;
2201;SDS011;1107;48.654;9.250;2023-01-01T07:46:31;5.07;;;4.30;;
2201;SDS011;1107;48.654;9.250;2023-01-01T07:49:00;4.40;;;4.10;;
2201;SDS011;1107;48.654;9.250;2023-01-01T07:51:27;4.27;;;3.97;;
2201;SDS011;1107;48.654;9.250;2023-01-01T07:53:54;3.87;;;3.67;;
2201;SDS011;1107;48.654;9.250;2023-01-01T07:56:21;8.23;;;4.40;;
2201;SDS011;1107;48.654;9.250;2023-01-01T07:58:48;4.30;;;3.90;;
2201;SDS011;1107;48.654;9.250;2023-01-01T08:01:15;3.63;;;3.33;;
2201;SDS011;1107;48.654;9.250;2023-01-01T08:03:44;3.40;;;3.20;;
2201;SDS011;1107;48.654;9.250;2023-01-01T08:06:16;10.43;;;3.70;;
2201;SDS011;1107;48.654;9.250;2023-01-01T08:08:43;4.13;;;3.83;;
2201;SDS011;1107;48.654;9.250;2023-01-01T08:11:10;6.00;;;3.73;;
2201;SDS011;1107;48.654;9.250;2023-01-01T08:13:37;3.70;;;3.50;;
2201;SDS011;1107;48.654;9.250;2023-01-01T08:16:04;3.43;;;3.03;;
2201;SDS011;1107;48.654;9.250;2023-01-01T08:18:31;4.00;;;3.70;;
2201;SDS011;1107;48.654;9.250;2023-01-01T08:21:00;4.40;;;3.53;;
2201;SDS011;1107;48.654;9.250;2023-01-01T08:23:27;3.50;;;3.30;;
2201;SDS011;1107;48.654;9.250;2023-01-01T08:25:57;3.80;;;3.50;;
2201;SDS011;1107;48.654;9.250;2023-01-01T08:28:25;4.03;;;3.73;;
2201;SDS011;1107;48.654;9.250;2023-01-01T08:30:52;3.90;;;3.40;;
2201;SDS011;1107;48.654;9.250;2023-01-01T08:33:19;4.00;;;3.70;;
2201;SDS011;1107;48.654;9.250;2023-01-01T08:35:47;3.83;;;3.53;;
2201;SDS011;1107;48.654;9.250;2023-01-01T08:38:16;4.10;;;3.53;;
2201;SDS011;1107;48.654;9.250;2023-01-01T08:40:43;4.60;;;4.20;;
2201;SDS011;1107;48.654;9.250;2023-01-01T08:43:09;5.53;;;3.43;;
2201;SDS011;1107;48.654;9.250;2023-01-01T08:45:36;3.83;;;3.30;;
2201;SDS011;1107;48.654;9.250;2023-01-01T08:48:03;4.20;;;3.80;;
2201;SDS011;1107;48.654;9.250;2023-01-01T08:50:31;4.07;;;3.80;;
2201;SDS011;1107;48.654;9.250;2023-01-01T08:52:58;3.97;;;3.67;;
2201;SDS011;1107;48.654;9.250;2023-01-01T08:55:26;3.47;;;3.27;;
2201;SDS011;1107;48.654;9.250;2023-01-01T08:57:53;4.20;;;3.90;;
2201;SDS011;1107;48.654;9.250;2023-01-01T09:00:20;4.23;;;3.13;;
2201;SDS011;1107;48.654;9.250;2023-01-01T09:02:47;3.00;;;2.80;;
2201;SDS011;1107;48.654;9.250;2023-01-01T09:05:14;6.30;;;3.10;;
2201;SDS011;1107;48.654;9.250;2023-01-01T09:07:41;4.33;;;4.07;;
2201;SDS011;1107;48.654;9.250;2023-01-01T09:10:08;3.90;;;3.00;;
2201;SDS011;1107;48.654;9.250;2023-01-01T09:12:36;4.30;;;3.47;;
2201;SDS011;1107;48.654;9.250;2023-01-01T09:15:03;3.53;;;3.30;;
2201;SDS011;1107;48.654;9.250;2023-01-01T09:17:31;8.60;;;3.53;;
2201;SDS011;1107;48.654;9.250;2023-01-01T09:19:58;3.40;;;3.20;;
2201;SDS011;1107;48.654;9.250;2023-01-01T09:22:25;4.50;;;3.50;;
2201;SDS011;1107;48.654;9.250;2023-01-01T09:24:52;10.53;;;4.13;;
2201;SDS011;1107;48.654;9.250;2023-01-01T09:27:19;4.40;;;3.53;;
2201;SDS011;1107;48.654;9.250;2023-01-01T09:29:47;4.60;;;4.20;;
2201;SDS011;1107;48.654;9.250;2023-01-01T09:32:14;5.97;;;3.87;;
2201;SDS011;1107;48.654;9.250;2023-01-01T09:34:42;3.63;;;3.43;;
2201;SDS011;1107;48.654;9.250;2023-01-01T09:37:09;6.57;;;3.70;;
2201;SDS011;1107;48.654;9.250;2023-01-01T09:39:36;5.00;;;3.90;;
2201;SDS011;1107;48.654;9.250;2023-01-01T09:42:09;4.20;;;3.90;;
2201;SDS011;1107;48.654;9.250;2023-01-01T09:45:04;6.13;;;4.33;;
2201;SDS011;1107;48.654;9.250;2023-01-01T09:47:39;4.00;;;3.70;;
2201;SDS011;1107;48.654;9.250;2023-01-01T09:50:10;3.70;;;3.40;;
2201;SDS011;1107;48.654;9.250;2023-01-01T09:52:42;7.17;;;3.70;;
2201;SDS011;1107;48.654;9.250;2023-01-01T09:55:15;4.70;;;4.40;;
2201;SDS011;1107;48.654;9.250;2023-01-01T09:57:48;5.40;;;3.70;;
2201;SDS011;1107;48.654;9.250;2023-01-01T10:00:17;4.00;;;3.70;;
2201;SDS011;1107;48.654;9.250;2023-01-01T10:02:53;4.23;;;4.03;;
2201;SDS011;1107;48.654;9.250;2023-01-01T10:05:33;3.50;;;3.30;;
2201;SDS011;1107;48.654;9.250;2023-01-01T10:08:13;3.95;;;3.65;;
2201;SDS011;1107;48.654;9.250;2023-01-01T10:10:46;5.00;;;3.80;;
2201;SDS011;1107;48.654;9.250;2023-01-01T10:13:22;4.87;;;4.57;;
2201;SDS011;1107;48.654;9.250;2023-01-01T10:15:56;3.47;;;3.27;;
2201;SDS011;1107;48.654;9.250;2023-01-01T10:18:26;3.40;;;3.20;;
2201;SDS011;1107;48.654;9.250;2023-01-01T10:20:58;3.53;;;3.33;;
2201;SDS011;1107;48.654;9.250;2023-01-01T10:23:31;4.00;;;3.70;;
2201;SDS011;1107;48.654;9.250;2023-01-01T10:26:06;4.33;;;3.60;;
2201;SDS011;1107;48.654;9.250;2023-01-01T10:28:39;4.80;;;4.40;;
2201;SDS011;1107;48.654;9.250;2023-01-01T10:31:16;4.03;;;3.73;;
2201;SDS011;1107;48.654;9.250;2023-01-01T10:33:45;11.00;;;8.93;;
2201;SDS011;1107;48.654;9.250;2023-01-01T10:36:14;4.10;;;3.70;;
2201;SDS011;1107;48.654;9.250;2023-01-01T10:38:44;3.33;;;3.03;;
2201;SDS011;1107;48.654;9.250;2023-01-01T10:41:12;3.90;;;3.70;;
2201;SDS011;1107;48.654;9.250;2023-01-01T10:43:40;4.23;;;3.10;;
2201;SDS011;1107;48.654;9.250;2023-01-01T10:46:08;3.83;;;3.43;;
2201;SDS011;1107;48.654;9.250;2023-01-01T10:48:52;4.90;;;3.47;;
2201;SDS011;1107;48.654;9.250;2023-01-01T10:51:30;3.50;;;2.77;;
2201;SDS011;1107;48.654;9.250;2023-01-01T10:53:58;3.33;;;3.13;;
2201;SDS011;1107;48.654;9.250;2023-01-01T10:56:25;3.50;;;3.30;;
2201;SDS011;1107;48.654;9.250;2023-01-01T10:59:07;3.27;;;3.07;;
2201;SDS011;1107;48.654;9.250;2023-01-01T11:02:10;3.03;;;2.83;;
2201;SDS011;1107;48.654;9.250;2023-01-01T11:04:42;4.40;;;2.93;;
2201;SDS011;1107;48.654;9.250;2023-01-01T11:07:12;3.40;;;3.20;;
2201;SDS011;1107;48.654;9.250;2023-01-01T11:09:46;9.13;;;3.70;;
2201;SDS011;1107;48.654;9.250;2023-01-01T11:12:16;5.00;;;3.77;;
2201;SDS011;1107;48.654;9.250;2023-01-01T11:14:47;2.90;;;2.70;;
2201;SDS011;1107;48.654;9.250;2023-01-01T11:17:19;4.80;;;3.50;;
2201;SDS011;1107;48.654;9.250;2023-01-01T11:19:49;3.77;;;3.43;;
2201;SDS011;1107;48.654;9.250;2023-01-01T11:25:09;4.50;;;4.20;;
2201;SDS011;1107;48.654;9.250;2023-01-01T11:27:42;4.13;;;3.73;;
2201;SDS011;1107;48.654;9.250;2023-01-01T11:30:18;3.63;;;3.10;;
2201;SDS011;1107;48.654;9.250;2023-01-01T11:32:47;4.20;;;2.93;;
2201;SDS011;1107;48.654;9.250;2023-01-01T11:35:19;4.13;;;3.33;;
2201;SDS011;1107;48.654;9.250;2023-01-01T11:37:48;3.90;;;3.40;;
2201;SDS011;1107;48.654;9.250;2023-01-01T11:40:18;6.70;;;3.17;;
2201;SDS011;1107;48.654;9.250;2023-01-01T11:42:48;4.10;;;3.50;;
2201;SDS011;1107;48.654;9.250;2023-01-01T11:45:18;3.30;;;2.80;;
2201;SDS011;1107;48.654;9.250;2023-01-01T11:47:49;5.83;;;2.70;;
2201;SDS011;1107;48.654;9.250;2023-01-01T11:50:21;3.10;;;2.90;;
2201;SDS011;1107;48.654;9.250;2023-01-01T11:52:52;4.40;;;3.00;;
2201;SDS011;1107;48.654;9.250;2023-01-01T11:55:23;3.70;;;3.47;;
2201;SDS011;1107;48.654;9.250;2023-01-01T11:58:02;5.53;;;3.20;;
2201;SDS011;1107;48.654;9.250;2023-01-01T12:00:35;2.87;;;2.67;;
2201;SDS011;1107;48.654;9.250;2023-01-01T12:03:05;7.70;;;3.30;;
2201;SDS011;1107;48.654;9.250;2023-01-01T12:05:45;3.43;;;3.23;;
2201;SDS011;1107;48.654;9.250;2023-01-01T12:08:18;3.80;;;3.43;;
2201;SDS011;1107;48.654;9.250;2023-01-01T12:10:53;3.87;;;3.57;;
2201;SDS011;1107;48.654;9.250;2023-01-01T12:13:26;3.90;;;3.70;;
2201;SDS011;1107;48.654;9.250;2023-01-01T12:15:57;4.40;;;3.80;;
2201;SDS011;1107;48.654;9.250;2023-01-01T12:18:32;4.40;;;4.10;;
2201;SDS011;1107;48.654;9.250;2023-01-01T12:21:08;4.40;;;4.10;;
2201;SDS011;1107;48.654;9.250;2023-01-01T12:23:40;4.50;;;4.20;;
2201;SDS011;1107;48.654;9.250;2023-01-01T12:26:10;3.77;;;3.47;;
2201;SDS011;1107;48.654;9.250;2023-01-01T12:28:43;2.80;;;2.60;;
2201;SDS011;1107;48.654;9.250;2023-01-01T12:31:32;3.40;;;2.97;;
2201;SDS011;1107;48.654;9.250;2023-01-01T12:34:08;3.03;;;2.83;;
2201;SDS011;1107;48.654;9.250;2023-01-01T12:36:44;2.97;;;2.77;;
2201;SDS011;1107;48.654;9.250;2023-01-01T12:42:23;8.30;;;3.10;;
2201;SDS011;1107;48.654;9.250;2023-01-01T12:47:49;3.50;;;3.20;;
2201;SDS011;1107;48.654;9.250;2023-01-01T12:50:27;6.20;;;3.10;;
2201;SDS011;1107;48.654;9.250;2023-01-01T12:53:02;3.23;;;2.90;;
2201;SDS011;1107;48.654;9.250;2023-01-01T12:55:42;4.10;;;2.60;;
2201;SDS011;1107;48.654;9.250;2023-01-01T12:58:29;4.27;;;2.67;;
2201;SDS011;1107;48.654;9.250;2023-01-01T13:01:00;4.63;;;2.97;;
2201;SDS011;1107;48.654;9.250;2023-01-01T13:03:33;5.63;;;3.00;;
2201;SDS011;1107;48.654;9.250;2023-01-01T13:06:03;3.27;;;3.00;;
2201;SDS011;1107;48.654;9.250;2023-01-01T13:08:33;3.10;;;2.80;;
2201;SDS011;1107;48.654;9.250;2023-01-01T13:11:02;2.90;;;2.70;;
2201;SDS011;1107;48.654;9.250;2023-01-01T13:13:30;3.03;;;2.83;;
2201;SDS011;1107;48.654;9.250;2023-01-01T13:15:57;2.93;;;2.73;;
2201;SDS011;1107;48.654;9.250;2023-01-01T13:18:25;3.50;;;3.30;;
2201;SDS011;1107;48.654;9.250;2023-01-01T13:20:57;5.27;;;2.97;;
2201;SDS011;1107;48.654;9.250;2023-01-01T13:23:43;2.93;;;2.63;;
2201;SDS011;1107;48.654;9.250;2023-01-01T13:26:31;2.83;;;2.37;;
2201;SDS011;1107;48.654;9.250;2023-01-01T13:32:05;5.87;;;2.80;;
2201;SDS011;1107;48.654;9.250;2023-01-01T13:37:26;5.40;;;2.90;;
2201;SDS011;1107;48.654;9.250;2023-01-01T13:43:20;3.50;;;3.00;;
2201;SDS011;1107;48.654;9.250;2023-01-01T13:45:58;5.53;;;3.30;;
2201;SDS011;1107;48.654;9.250;2023-01-01T13:48:39;2.60;;;2.40;;
2201;SDS011;1107;48.654;9.250;2023-01-01T13:51:19;3.33;;;3.03;;
2201;SDS011;1107;48.654;9.250;2023-01-01T13:54:10;2.73;;;2.53;;
2201;SDS011;1107;48.654;9.250;2023-01-01T13:56:56;8.43;;;3.57;;
2201;SDS011;1107;48.654;9.250;2023-01-01T13:59:34;5.90;;;3.30;;
2201;SDS011;1107;48.654;9.250;2023-01-01T14:02:14;3.50;;;3.30;;
2201;SDS011;1107;48.654;9.250;2023-01-01T14:04:48;3.20;;;3.00;;
2201;SDS011;1107;48.654;9.250;2023-01-01T14:07:24;5.37;;;3.27;;
2201;SDS011;1107;48.654;9.250;2023-01-01T14:10:16;4.90;;;3.63;;
2201;SDS011;1107;48.654;9.250;2023-01-01T14:12:48;5.53;;;3.70;;
2201;SDS011;1107;48.654;9.250;2023-01-01T14:15:18;4.37;;;4.13;;
2201;SDS011;1107;48.654;9.250;2023-01-01T14:17:50;4.37;;;3.40;;
2201;SDS011;1107;48.654;9.250;2023-01-01T14:20:18;4.10;;;3.80;;
2201;SDS011;1107;48.654;9.250;2023-01-01T14:22:48;4.30;;;3.90;;
2201;SDS011;1107;48.654;9.250;2023-01-01T14:25:19;3.07;;;2.87;;
2201;SDS011;1107;48.654;9.250;2023-01-01T14:27:51;4.13;;;3.83;;
2201;SDS011;1107;48.654;9.250;2023-01-01T14:30:20;3.33;;;3.13;;
2201;SDS011;1107;48.654;9.250;2023-01-01T14:32:54;3.57;;;3.37;;
2201;SDS011;1107;48.654;9.250;2023-01-01T14:35:22;4.37;;;3.57;;
2201;SDS011;1107;48.654;9.250;2023-01-01T14:37:49;4.00;;;3.70;;
2201;SDS011;1107;48.654;9.250;2023-01-01T14:40:17;3.47;;;3.07;;
2201;SDS011;1107;48.654;9.250;2023-01-01T14:42:51;6.93;;;2.97;;
2201;SDS011;1107;48.654;9.250;2023-01-01T14:45:23;3.30;;;3.10;;
2201;SDS011;1107;48.654;9.250;2023-01-01T14:47:51;3.17;;;2.97;;
2201;SDS011;1107;48.654;9.250;2023-01-01T14:50:25;3.77;;;3.40;;
2201;SDS011;1107;48.654;9.250;2023-01-01T14:52:55;3.70;;;3.40;;
2201;SDS011;1107;48.654;9.250;2023-01-01T14:55:27;3.53;;;3.33;;
2201;SDS011;1107;48.654;9.250;2023-01-01T14:58:00;3.60;;;3.30;;
2201;SDS011;1107;48.654;9.250;2023-01-01T15:00:30;4.77;;;3.90;;
2201;SDS011;1107;48.654;9.250;2023-01-01T15:03:11;5.70;;;3.90;;
2201;SDS011;1107;48.654;9.250;2023-01-01T15:05:40;6.20;;;5.53;;
2201;SDS011;1107;48.654;9.250;2023-01-01T15:08:19;5.87;;;5.47;;
2201;SDS011;1107;48.654;9.250;2023-01-01T15:10:47;7.40;;;4.70;;
2201;SDS011;1107;48.654;9.250;2023-01-01T15:13:16;5.17;;;4.40;;
2201;SDS011;1107;48.654;9.250;2023-01-01T15:15:46;5.37;;;4.10;;
2201;SDS011;1107;48.654;9.250;2023-01-01T15:21:19;6.50;;;4.50;;
2201;SDS011;1107;48.654;9.250;2023-01-01T15:23:58;6.80;;;4.20;;
2201;SDS011;1107;48.654;9.250;2023-01-01T15:26:28;15.83;;;4.17;;
2201;SDS011;1107;48.654;9.250;2023-01-01T15:28:56;8.30;;;4.30;;
2201;SDS011;1107;48.654;9.250;2023-01-01T15:31:33;4.90;;;4.60;;
2201;SDS011;1107;48.654;9.250;2023-01-01T15:34:02;5.40;;;4.10;;
2201;SDS011;1107;48.654;9.250;2023-01-01T15:36:30;5.87;;;4.80;;
2201;SDS011;1107;48.654;9.250;2023-01-01T15:38:57;7.93;;;4.00;;
2201;SDS011;1107;48.654;9.250;2023-01-01T15:41:32;5.10;;;4.70;;
2201;SDS011;1107;48.654;9.250;2023-01-01T15:44:12;4.80;;;4.40;;
2201;SDS011;1107;48.654;9.250;2023-01-01T15:46:46;5.90;;;4.13;;
2201;SDS011;1107;48.654;9.250;2023-01-01T15:49:25;5.40;;;5.10;;
2201;SDS011;1107;48.654;9.250;2023-01-01T15:51:57;8.33;;;6.17;;
2201;SDS011;1107;48.654;9.250;2023-01-01T15:54:27;6.87;;;6.27;;
2201;SDS011;1107;48.654;9.250;2023-01-01T15:56:54;17.00;;;10.97;;